createdAt,value
2023-02-17T00:01:49.914Z,106.10
2023-02-17T00:04:19.931Z,100.50
2023-02-17T00:06:50.103Z,104.30
2023-02-17T00:09:20.607Z,105.00
2023-02-17T00:14:22.459Z,98.50
2023-02-17T00:16:49.607Z,100.40
2023-02-17T00:19:26.259Z,107.00
2023-02-17T00:22:05.113Z,96.40
2023-02-17T00:24:39.020Z,100.00
2023-02-17T00:27:26.686Z,97.10
2023-02-17T00:29:54.247Z,103.40
2023-02-17T00:32:41.656Z,101.40
2023-02-17T00:35:24.556Z,106.60
2023-02-17T00:37:51.808Z,97.10
2023-02-17T00:40:22.113Z,100.80
2023-02-17T00:42:55.141Z,100.70
2023-02-17T00:45:42.782Z,101.60
2023-02-17T00:48:30.425Z,99.00
2023-02-17T00:51:00.621Z,99.20
2023-02-17T00:53:31.253Z,100.30
2023-02-17T00:56:09.686Z,103.40
2023-02-17T00:58:56.979Z,98.40
2023-02-17T01:01:44.474Z,95.80
2023-02-17T01:04:22.996Z,98.40
2023-02-17T01:06:52.830Z,101.50
2023-02-17T01:09:29.220Z,95.90
2023-02-17T01:12:12.343Z,101.50
2023-02-17T01:14:42.653Z,98.80
2023-02-17T01:17:09.626Z,96.20
2023-02-17T01:19:48.214Z,100.10
2023-02-17T01:22:16.596Z,103.50
2023-02-17T01:24:55.348Z,100.90
2023-02-17T01:27:31.270Z,98.90
2023-02-17T01:29:58.985Z,93.80
2023-02-17T01:32:33.761Z,96.80
2023-02-17T01:35:21.107Z,93.30
2023-02-17T01:37:48.034Z,98.20
2023-02-17T01:40:18.510Z,96.30
2023-02-17T01:42:48.226Z,97.00
2023-02-17T01:45:38.465Z,96.60
2023-02-17T01:48:11.768Z,95.40
2023-02-17T01:50:41.367Z,99.10
2023-02-17T01:53:11.181Z,89.30
2023-02-17T01:55:40.786Z,89.60
2023-02-17T01:58:13.150Z,101.70
2023-02-17T02:00:43.165Z,92.90
2023-02-17T02:03:14.114Z,94.20
2023-02-17T02:05:43.695Z,92.20
2023-02-17T02:08:15.279Z,89.30
2023-02-17T02:10:42.518Z,92.10
2023-02-17T02:13:11.041Z,93.10
2023-02-17T02:15:44.787Z,87.60
2023-02-17T02:18:29.977Z,90.10
2023-02-17T02:21:27.246Z,88.70
2023-02-17T02:24:08.726Z,95.30
2023-02-17T02:27:18.972Z,90.00
2023-02-17T02:30:22.605Z,89.00
2023-02-17T02:33:01.416Z,87.80
2023-02-17T02:35:35.633Z,95.40
2023-02-17T02:38:07.699Z,92.00
2023-02-17T02:45:11.756Z,91.80
2023-02-17T02:47:53.057Z,89.10
2023-02-17T02:50:33.077Z,93.30
2023-02-17T02:55:54.236Z,89.80
2023-02-17T02:58:30.695Z,84.90
2023-02-17T03:01:05.226Z,88.30
2023-02-17T03:03:42.657Z,91.60
2023-02-17T03:06:28.991Z,86.50
2023-02-17T03:09:06.687Z,86.40
2023-02-17T03:11:34.304Z,93.30
2023-02-17T03:14:23.719Z,91.00
2023-02-17T03:17:11.925Z,91.70
2023-02-17T03:19:42.634Z,92.30
2023-02-17T03:22:16.651Z,87.70
2023-02-17T03:24:47.726Z,90.50
2023-02-17T03:27:35.738Z,92.10
2023-02-17T03:30:03.520Z,95.70
2023-02-17T03:32:33.845Z,88.20
2023-02-17T03:35:01.746Z,87.20
2023-02-17T03:37:32.380Z,89.40
2023-02-17T03:39:59.636Z,92.20
2023-02-17T03:42:27.498Z,87.00
2023-02-17T03:44:54.765Z,94.20
2023-02-17T03:47:21.905Z,90.70
2023-02-17T03:49:49.581Z,93.70
2023-02-17T03:52:16.677Z,91.00
2023-02-17T03:54:44.067Z,89.40
2023-02-17T03:57:11.732Z,88.90
2023-02-17T03:59:41.385Z,83.50
2023-02-17T04:02:11.766Z,86.80
2023-02-17T04:04:39.497Z,92.40
2023-02-17T04:07:06.855Z,95.50
2023-02-17T04:09:34.237Z,96.10
2023-02-17T04:12:04.865Z,91.70
2023-02-17T04:14:52.389Z,95.40
2023-02-17T04:17:20.107Z,93.70
2023-02-17T04:19:47.261Z,90.50
2023-02-17T04:22:16.380Z,94.10
2023-02-17T04:24:57.743Z,88.30
2023-02-17T04:27:25.708Z,93.30
2023-02-17T04:29:55.878Z,96.40
2023-02-17T04:32:23.317Z,92.20
2023-02-17T04:34:50.758Z,88.80
2023-02-17T04:37:28.162Z,90.50
2023-02-17T04:39:58.315Z,91.50
2023-02-17T04:42:25.575Z,90.70
2023-02-17T04:44:53.175Z,94.60
2023-02-17T04:47:20.734Z,94.90
2023-02-17T04:49:51.336Z,92.90
2023-02-17T04:52:21.386Z,92.80
2023-02-17T04:54:48.936Z,91.00
2023-02-17T04:57:16.174Z,98.20
2023-02-17T04:59:53.565Z,93.10
2023-02-17T05:02:20.795Z,94.40
2023-02-17T05:04:52.465Z,89.90
2023-02-17T05:07:31.053Z,97.60
2023-02-17T05:10:00.827Z,95.40
2023-02-17T05:12:27.884Z,94.70
2023-02-17T05:14:58.479Z,98.70
2023-02-17T05:17:25.632Z,99.80
2023-02-17T05:19:52.769Z,95.30
2023-02-17T05:22:20.104Z,96.70
2023-02-17T05:24:47.439Z,94.80
2023-02-17T05:27:14.654Z,98.90
2023-02-17T05:29:42.015Z,97.30
2023-02-17T05:32:09.494Z,93.60
2023-02-17T05:34:39.045Z,99.40
2023-02-17T05:37:07.249Z,90.50
2023-02-17T05:39:34.664Z,90.90
2023-02-17T05:42:05.136Z,99.50
2023-02-17T05:44:32.590Z,100.00
2023-02-17T05:47:00.314Z,93.30
2023-02-17T05:49:27.524Z,100.20
2023-02-17T05:51:57.578Z,93.10
2023-02-17T05:54:25.252Z,95.70
2023-02-17T05:56:52.616Z,94.20
2023-02-17T05:59:24.505Z,98.80
2023-02-17T06:01:51.875Z,89.80
2023-02-17T06:04:19.212Z,93.80
2023-02-17T06:06:46.809Z,94.30
2023-02-17T06:09:14.182Z,101.20
2023-02-17T06:11:41.326Z,92.50
2023-02-17T06:14:12.078Z,95.50
2023-02-17T06:16:39.498Z,101.60
2023-02-17T06:19:07.158Z,95.60
2023-02-17T06:21:34.555Z,93.80
2023-02-17T06:24:02.034Z,87.40
2023-02-17T06:26:29.365Z,90.10
2023-02-17T06:29:17.253Z,85.90
2023-02-17T06:31:44.545Z,89.50
2023-02-17T06:34:11.917Z,89.30
2023-02-17T06:36:39.449Z,91.00
2023-02-17T06:39:06.954Z,95.40
2023-02-17T06:41:34.336Z,91.60
2023-02-17T06:44:01.707Z,96.10
2023-02-17T06:46:28.984Z,97.40
2023-02-17T06:48:56.246Z,90.90
2023-02-17T06:51:23.896Z,96.40
2023-02-17T06:53:51.153Z,90.70
2023-02-17T06:56:20.881Z,87.80
2023-02-17T06:58:48.726Z,87.80
2023-02-17T07:01:21.143Z,91.40
2023-02-17T07:03:48.703Z,87.70
2023-02-17T07:06:16.641Z,85.00
2023-02-17T07:08:43.782Z,88.20
2023-02-17T07:11:13.805Z,92.90
2023-02-17T07:13:42.283Z,81.60
2023-02-17T07:16:14.194Z,83.00
2023-02-17T07:18:41.910Z,81.30
2023-02-17T07:21:12.344Z,85.70
2023-02-17T07:23:40.223Z,85.20
2023-02-17T07:26:09.622Z,86.10
2023-02-17T07:28:37.186Z,84.00
2023-02-17T07:31:10.079Z,80.00
2023-02-17T07:33:38.563Z,80.10
2023-02-17T07:36:10.983Z,81.80
2023-02-17T07:38:40.437Z,78.70
2023-02-17T07:41:10.640Z,74.50
2023-02-17T07:43:38.118Z,75.10
2023-02-17T07:46:06.677Z,70.50
2023-02-17T07:48:34.281Z,76.60
2023-02-17T07:51:07.805Z,73.20
2023-02-17T07:53:36.060Z,72.90
2023-02-17T07:56:05.765Z,75.20
2023-02-17T07:58:34.726Z,72.30
2023-02-17T08:01:06.147Z,70.50
2023-02-17T08:03:33.672Z,76.00
2023-02-17T08:06:01.289Z,72.90
2023-02-17T08:08:49.735Z,69.60
2023-02-17T08:11:44.825Z,70.90
2023-02-17T08:14:13.283Z,72.20
2023-02-17T08:16:40.752Z,72.40
2023-02-17T08:19:08.699Z,66.40
2023-02-17T08:21:56.530Z,68.90
2023-02-17T08:24:43.959Z,69.60
2023-02-17T08:27:15.040Z,66.10
2023-02-17T08:29:42.748Z,70.50
2023-02-17T08:32:14.523Z,66.20
2023-02-17T08:34:51.272Z,65.00
2023-02-17T08:37:18.701Z,68.60
2023-02-17T08:39:45.791Z,69.40
2023-02-17T08:42:12.971Z,68.10
2023-02-17T08:45:00.905Z,67.20
2023-02-17T08:47:28.233Z,68.10
2023-02-17T08:49:56.270Z,66.10
2023-02-17T08:52:23.636Z,64.40
2023-02-17T08:54:52.810Z,67.50
2023-02-17T08:57:21.704Z,61.50
2023-02-17T08:59:49.577Z,62.90
2023-02-17T09:02:17.850Z,61.10
2023-02-17T09:04:54.893Z,60.40
2023-02-17T09:07:22.292Z,64.70
2023-02-17T09:09:49.851Z,62.30
2023-02-17T09:12:36.561Z,58.80
2023-02-17T09:15:04.347Z,61.90
2023-02-17T09:17:31.812Z,63.70
2023-02-17T09:19:59.564Z,65.50
2023-02-17T09:22:32.110Z,61.20
2023-02-17T09:25:05.681Z,59.70
2023-02-17T09:27:33.457Z,60.70
2023-02-17T09:30:02.440Z,64.30
2023-02-17T09:32:33.204Z,61.40
2023-02-17T09:35:06.210Z,63.40
2023-02-17T09:37:34.368Z,67.90
2023-02-17T09:40:01.841Z,64.30
2023-02-17T09:42:34.764Z,65.40
2023-02-17T09:45:08.178Z,61.00
2023-02-17T09:47:43.404Z,60.50
2023-02-17T09:50:14.914Z,62.20
2023-02-17T09:52:52.753Z,66.20
2023-02-17T09:55:25.326Z,67.20
2023-02-17T09:57:57.839Z,63.50
2023-02-17T10:00:34.020Z,66.30
2023-02-17T10:03:07.763Z,66.00
2023-02-17T10:05:41.359Z,62.90
2023-02-17T10:08:14.198Z,65.80
2023-02-17T10:10:49.219Z,64.30
2023-02-17T10:13:19.215Z,62.60
2023-02-17T10:15:50.845Z,64.80
2023-02-17T10:18:21.211Z,68.40
2023-02-17T10:20:53.741Z,67.00
2023-02-17T10:23:23.396Z,69.00
2023-02-17T10:26:07.661Z,67.30
2023-02-17T10:28:48.600Z,69.00
2023-02-17T10:31:28.218Z,75.40
2023-02-17T10:34:03.036Z,63.80
2023-02-17T10:36:39.012Z,71.70
2023-02-17T10:39:14.740Z,72.90
2023-02-17T10:41:47.111Z,70.80
2023-02-17T10:44:21.152Z,67.70
2023-02-17T10:46:49.718Z,72.50
2023-02-17T10:49:26.465Z,64.40
2023-02-17T10:51:54.149Z,74.30
2023-02-17T10:54:31.504Z,73.00
2023-02-17T10:57:05.998Z,68.20
2023-02-17T10:59:38.956Z,62.10
2023-02-17T11:02:19.452Z,67.40
2023-02-17T11:04:49.213Z,69.40
2023-02-17T11:07:19.996Z,67.80
2023-02-17T11:09:52.367Z,65.40
2023-02-17T11:12:25.836Z,72.10
2023-02-17T11:14:55.752Z,71.80
2023-02-17T11:17:29.708Z,74.60
2023-02-17T11:20:04.389Z,73.50
2023-02-17T11:22:38.491Z,74.00
2023-02-17T11:25:09.125Z,76.20
2023-02-17T11:27:36.386Z,70.30
2023-02-17T11:30:19.841Z,77.30
2023-02-17T11:32:47.738Z,72.50
2023-02-17T11:35:27.829Z,77.20
2023-02-17T11:38:02.563Z,70.60
2023-02-17T11:40:32.424Z,71.00
2023-02-17T11:43:04.474Z,72.30
2023-02-17T11:45:40.302Z,73.30
2023-02-17T11:48:27.047Z,76.30
2023-02-17T11:51:01.561Z,73.20
2023-02-17T11:53:48.084Z,79.90
2023-02-17T11:56:20.027Z,75.70
2023-02-17T11:59:04.645Z,73.80
2023-02-17T12:01:47.800Z,78.00
2023-02-17T12:04:30.271Z,73.40
2023-02-17T12:07:28.282Z,78.00
2023-02-17T12:12:32.930Z,69.50
2023-02-17T12:15:10.192Z,74.90
2023-02-17T12:17:47.948Z,69.20
2023-02-17T12:20:38.590Z,69.10
2023-02-17T12:23:20.903Z,73.40
2023-02-17T12:25:53.416Z,70.50
2023-02-17T12:28:41.413Z,76.10
2023-02-17T12:31:20.828Z,71.10
2023-02-17T12:33:58.502Z,70.80
2023-02-17T12:36:30.428Z,76.60
2023-02-17T12:39:01.702Z,71.50
2023-02-17T12:41:33.369Z,73.40
2023-02-17T12:44:04.700Z,70.80
2023-02-17T12:46:38.388Z,74.40
2023-02-17T12:49:12.692Z,68.40
2023-02-17T12:51:43.856Z,70.60
2023-02-17T12:54:19.934Z,67.10
2023-02-17T12:56:55.758Z,64.50
2023-02-17T12:59:28.064Z,68.40
2023-02-17T13:02:02.785Z,65.90
2023-02-17T13:04:33.776Z,67.80
2023-02-17T13:07:15.466Z,63.30
2023-02-17T13:09:48.200Z,63.60
2023-02-17T13:12:34.098Z,62.70
2023-02-17T13:15:33.798Z,61.60
2023-02-17T13:18:04.301Z,59.90
2023-02-17T13:20:52.428Z,58.80
2023-02-17T13:23:37.805Z,55.50
2023-02-17T13:26:32.373Z,52.90
2023-02-17T13:29:24.476Z,50.00
2023-02-17T13:31:55.440Z,48.70
2023-02-17T13:34:33.264Z,54.40
2023-02-17T13:37:03.433Z,54.60
2023-02-17T13:39:40.574Z,49.10
2023-02-17T13:42:38.485Z,54.60
2023-02-17T13:45:15.339Z,48.70
2023-02-17T13:47:44.049Z,50.90
2023-02-17T13:50:33.176Z,51.30
2023-02-17T13:53:00.640Z,56.30
2023-02-17T13:55:28.452Z,55.40
2023-02-17T13:57:57.976Z,56.80
2023-02-17T14:00:31.311Z,55.80
2023-02-17T14:03:00.714Z,63.90
2023-02-17T14:05:37.918Z,56.00
2023-02-17T14:10:33.694Z,57.90
2023-02-17T14:13:01.959Z,57.20
2023-02-17T14:15:31.110Z,52.90
2023-02-17T14:17:58.320Z,55.60
2023-02-17T14:20:31.416Z,59.90
2023-02-17T14:23:06.096Z,62.30
2023-02-17T14:25:36.659Z,61.40
2023-02-17T14:28:04.395Z,55.60
2023-02-17T14:30:34.612Z,57.70
2023-02-17T14:33:23.852Z,57.60
2023-02-17T14:35:56.143Z,60.30
2023-02-17T14:38:26.510Z,57.10
2023-02-17T14:40:56.102Z,55.90
2023-02-17T14:43:26.443Z,52.20
2023-02-17T14:45:57.376Z,52.90
2023-02-17T14:48:27.389Z,54.30
2023-02-17T14:50:59.050Z,48.10
2023-02-17T14:53:29.769Z,51.70
2023-02-17T14:56:02.403Z,46.80
2023-02-17T14:58:30.430Z,49.30
2023-02-17T15:01:07.651Z,55.10
2023-02-17T15:03:34.794Z,54.80
2023-02-17T15:06:02.810Z,50.70
2023-02-17T15:08:34.701Z,55.30
2023-02-17T15:11:29.008Z,60.80
2023-02-17T15:13:57.456Z,56.50
2023-02-17T15:16:25.184Z,54.20
2023-02-17T15:18:52.322Z,60.60
2023-02-17T15:21:29.107Z,57.00
2023-02-17T15:24:15.131Z,65.20
2023-02-17T15:26:54.621Z,60.00
2023-02-17T15:29:23.670Z,58.80
2023-02-17T15:31:53.353Z,59.00
2023-02-17T15:34:23.488Z,57.30
2023-02-17T15:36:50.584Z,56.80
2023-02-17T15:39:19.576Z,60.30
2023-02-17T15:41:48.344Z,61.90
2023-02-17T15:44:20.110Z,61.00
2023-02-17T15:46:49.265Z,62.80
2023-02-17T15:49:16.733Z,55.50
2023-02-17T15:51:44.070Z,55.50
2023-02-17T15:54:11.530Z,52.20
2023-02-17T15:56:45.321Z,49.60
2023-02-17T15:59:17.530Z,47.60
2023-02-17T16:01:45.274Z,49.00
2023-02-17T16:04:14.742Z,44.10
2023-02-17T16:06:42.360Z,46.50
2023-02-17T16:09:10.117Z,44.00
2023-02-17T16:11:52.878Z,42.70
2023-02-17T16:14:26.440Z,44.70
2023-02-17T16:16:54.075Z,45.50
2023-02-17T16:19:41.622Z,43.20
2023-02-17T16:22:08.904Z,38.30
2023-02-17T16:24:38.265Z,39.00
2023-02-17T16:27:08.345Z,41.70
2023-02-17T16:29:35.967Z,38.40
2023-02-17T16:32:11.704Z,40.10
2023-02-17T16:34:43.094Z,42.90
2023-02-17T16:37:17.090Z,38.40
2023-02-17T16:39:45.414Z,41.30
2023-02-17T16:42:15.726Z,40.40
2023-02-17T16:44:44.311Z,37.90
2023-02-17T16:47:25.630Z,37.80
2023-02-17T16:49:53.453Z,40.30
2023-02-17T16:52:27.769Z,37.20
2023-02-17T16:54:55.558Z,46.00
2023-02-17T16:57:23.550Z,38.10
2023-02-17T17:00:00.170Z,37.40
2023-02-17T17:02:30.028Z,37.60
2023-02-17T17:05:08.126Z,38.80
2023-02-17T17:07:35.435Z,41.10
2023-02-17T17:10:16.302Z,35.10
2023-02-17T17:12:45.509Z,36.70
2023-02-17T17:15:16.980Z,38.70
2023-02-17T17:17:47.479Z,34.70
2023-02-17T17:20:19.039Z,36.70
2023-02-17T17:22:49.523Z,37.20
2023-02-17T17:25:17.263Z,36.10
2023-02-17T17:27:47.090Z,33.70
2023-02-17T17:30:21.193Z,37.10
2023-02-17T17:32:48.917Z,36.90
2023-02-17T17:35:16.583Z,35.20
2023-02-17T17:37:44.516Z,39.00
2023-02-17T17:40:19.176Z,39.70
2023-02-17T17:42:46.837Z,34.70
2023-02-17T17:45:15.210Z,35.40
2023-02-17T17:47:42.957Z,35.00
2023-02-17T17:50:14.117Z,35.70
2023-02-17T17:52:41.476Z,33.30
2023-02-17T17:55:09.214Z,35.10
2023-02-17T17:57:36.578Z,33.40
2023-02-17T18:00:06.146Z,32.40
2023-02-17T18:02:42.435Z,31.20
2023-02-17T18:05:11.075Z,31.50
2023-02-17T18:07:39.714Z,29.70
2023-02-17T18:10:11.106Z,30.20
2023-02-17T18:12:41.475Z,26.70
2023-02-17T18:15:10.874Z,27.90
2023-02-17T18:17:41.826Z,26.80
2023-02-17T18:20:12.927Z,24.90
2023-02-17T18:22:40.431Z,27.40
2023-02-17T18:25:08.839Z,27.00
2023-02-17T18:27:42.765Z,27.50
2023-02-17T18:30:12.770Z,28.70
2023-02-17T18:32:40.075Z,25.80
2023-02-17T18:35:10.848Z,26.10
2023-02-17T18:37:38.135Z,28.30
2023-02-17T18:40:06.469Z,28.30
2023-02-17T18:42:34.191Z,25.20
2023-02-17T18:45:07.959Z,26.60
2023-02-17T18:47:40.874Z,26.50
2023-02-17T18:50:09.905Z,25.30
2023-02-17T18:52:41.825Z,26.10
2023-02-17T18:55:22.383Z,27.40
2023-02-17T18:57:49.749Z,26.20
2023-02-17T19:00:20.282Z,26.90
2023-02-17T19:02:58.021Z,30.50
2023-02-17T19:05:30.397Z,25.50
2023-02-17T19:07:58.708Z,27.10
2023-02-17T19:10:26.042Z,28.20
2023-02-17T19:12:54.113Z,27.80
2023-02-17T19:15:21.915Z,27.40
2023-02-17T19:17:51.095Z,28.50
2023-02-17T19:20:18.899Z,30.00
2023-02-17T19:22:46.469Z,29.30
2023-02-17T19:25:13.602Z,31.80
2023-02-17T19:27:51.982Z,30.50
2023-02-17T19:30:19.876Z,34.30
2023-02-17T19:32:47.110Z,30.20
2023-02-17T19:35:14.866Z,30.10
2023-02-17T19:37:42.040Z,31.40
2023-02-17T19:40:17.013Z,34.30
2023-02-17T19:42:44.115Z,33.00
2023-02-17T19:45:20.655Z,34.30
2023-02-17T19:47:50.151Z,31.70
2023-02-17T19:50:19.604Z,32.90
2023-02-17T19:52:57.944Z,33.50
2023-02-17T19:55:26.450Z,34.50
2023-02-17T19:57:59.415Z,35.80
2023-02-17T20:03:12.834Z,34.50
2023-02-17T20:05:42.689Z,35.90
2023-02-17T20:08:14.805Z,37.30
2023-02-17T20:10:43.402Z,36.40
2023-02-17T20:13:10.708Z,34.70
2023-02-17T20:15:38.369Z,34.90
2023-02-17T20:18:05.726Z,35.60
2023-02-17T20:20:32.950Z,37.50
2023-02-17T20:23:00.323Z,36.50
2023-02-17T20:25:27.527Z,38.10
2023-02-17T20:27:55.911Z,35.60
2023-02-17T20:30:24.977Z,36.00
2023-02-17T20:32:52.116Z,34.00
2023-02-17T20:35:19.570Z,36.50
2023-02-17T20:37:47.025Z,32.20
2023-02-17T20:40:16.877Z,33.00
2023-02-17T20:42:43.941Z,31.70
2023-02-17T20:45:11.610Z,31.60
2023-02-17T20:47:38.851Z,31.70
2023-02-17T20:50:09.358Z,30.90
2023-02-17T20:52:39.722Z,29.00
2023-02-17T20:55:07.805Z,27.70
2023-02-17T20:57:34.986Z,25.80
2023-02-17T21:00:02.606Z,28.50
2023-02-17T21:02:29.927Z,25.80
2023-02-17T21:05:17.638Z,23.80
2023-02-17T21:07:44.905Z,24.80
2023-02-17T21:10:19.716Z,24.60
2023-02-17T21:12:47.761Z,24.60
2023-02-17T21:15:15.366Z,24.20
2023-02-17T21:17:42.938Z,25.90
2023-02-17T21:20:15.296Z,24.20
2023-02-17T21:22:42.650Z,22.80
2023-02-17T21:25:13.065Z,23.80
2023-02-17T21:27:40.247Z,22.00
2023-02-17T21:30:10.558Z,20.10
2023-02-17T21:32:37.944Z,18.10
2023-02-17T21:35:05.434Z,18.70
2023-02-17T21:37:43.915Z,16.90
2023-02-17T21:40:13.654Z,15.70
2023-02-17T21:43:03.854Z,13.60
2023-02-17T21:45:32.462Z,13.70
2023-02-17T21:47:59.792Z,12.60
2023-02-17T21:50:26.863Z,11.30
2023-02-17T21:52:53.980Z,13.10
2023-02-17T21:55:24.221Z,11.40
2023-02-17T21:57:51.992Z,14.20
2023-02-17T22:00:22.045Z,15.40
2023-02-17T22:02:49.453Z,14.50
2023-02-17T22:05:17.307Z,16.90
2023-02-17T22:07:44.337Z,12.50
2023-02-17T22:10:12.509Z,13.60
2023-02-17T22:12:39.834Z,9.50
2023-02-17T22:15:07.735Z,8.10
2023-02-17T22:17:37.395Z,8.40
2023-02-17T22:20:05.944Z,9.70
2023-02-17T22:22:40.925Z,8.00
2023-02-17T22:25:08.876Z,6.50
2023-02-17T22:27:36.691Z,8.90
2023-02-17T22:30:03.895Z,6.20
2023-02-17T22:32:31.478Z,10.60
2023-02-17T22:34:58.896Z,5.50
2023-02-17T22:37:26.824Z,4.90
2023-02-17T22:39:56.882Z,6.00
2023-02-17T22:42:24.948Z,4.80
2023-02-17T22:44:53.237Z,5.40
2023-02-17T22:47:20.594Z,4.70
2023-02-17T22:49:48.004Z,5.40
2023-02-17T22:52:15.595Z,6.00
2023-02-17T22:54:44.406Z,4.80
2023-02-17T22:57:12.162Z,6.70
2023-02-17T22:59:42.219Z,4.10
2023-02-17T23:02:12.651Z,7.30
2023-02-17T23:04:39.895Z,6.30
2023-02-17T23:07:07.549Z,5.60
2023-02-17T23:09:35.079Z,4.60
2023-02-17T23:12:02.230Z,5.90
2023-02-17T23:14:36.343Z,5.90
2023-02-17T23:17:05.973Z,5.80
2023-02-17T23:19:34.227Z,6.00
2023-02-17T23:22:06.746Z,7.80
2023-02-17T23:24:34.877Z,5.90
2023-02-17T23:27:03.419Z,5.90
2023-02-17T23:29:31.642Z,5.40
2023-02-17T23:32:00.705Z,5.20
2023-02-17T23:34:28.912Z,7.90
2023-02-17T23:36:56.145Z,5.40
2023-02-17T23:39:23.963Z,7.30
2023-02-17T23:41:53.585Z,4.80
2023-02-17T23:44:24.085Z,5.30
2023-02-17T23:46:51.505Z,5.60
2023-02-17T23:49:19.348Z,6.20
2023-02-17T23:51:48.097Z,4.80
2023-02-17T23:54:18.228Z,5.30
2023-02-17T23:56:45.690Z,5.00
2023-02-17T23:59:23.015Z,8.90
